Time;durP1;ratioP1;P1;durP2;ratioP2;P2;SDS_P1;SDS_P2;PMS_P1;PMS_P2;Temp;Humidity;BMP_temperature;BMP_pressure;BME280_temperature;BME280_humidity;BME280_pressure;Samples;Min_cycle;Max_cycle;Signal;HPM_P1;HPM_P2
2021/08/18 00:01:45;;;;;;;58.42;23.85;;;;;;;21.63;100.00;100653.81;1690741;84;21601;-76
2021/08/18 00:04:12;;;;;;;58.17;25.17;;;;;;;21.57;100.00;100664.17;1690334;84;21475;-75
2021/08/18 00:06:38;;;;;;;60.80;26.07;;;;;;;21.55;100.00;100660.95;1690657;84;21006;-78
2021/08/18 00:09:05;;;;;;;57.90;24.52;;;;;;;21.56;100.00;100662.58;1690648;84;21054;-77
2021/08/18 00:11:32;;;;;;;70.85;25.90;;;;;;;21.57;100.00;100663.38;1690672;84;22113;-79
2021/08/18 00:13:58;;;;;;;56.00;24.10;;;;;;;21.51;100.00;100666.88;1690362;84;21570;-79
2021/08/18 00:16:26;;;;;;;53.80;24.63;;;;;;;21.44;100.00;100668.77;1690955;84;21055;-76
2021/08/18 00:18:53;;;;;;;61.50;25.27;;;;;;;21.39;100.00;100671.70;1690774;84;21502;-85
2021/08/18 00:21:22;;;;;;;60.10;23.70;;;;;;;21.34;100.00;100670.48;1690946;84;21042;-78
2021/08/18 00:23:48;;;;;;;52.80;23.65;;;;;;;21.30;100.00;100663.48;1690994;84;21380;-78
2021/08/18 00:26:15;;;;;;;54.45;23.05;;;;;;;21.28;100.00;100669.06;1674737;84;21031;-78
2021/08/18 00:28:41;;;;;;;51.80;23.05;;;;;;;21.26;100.00;100667.20;1690562;84;21073;-79
2021/08/18 00:31:10;;;;;;;52.80;23.90;;;;;;;21.23;100.00;100664.55;1690609;84;21070;-79
2021/08/18 00:33:36;;;;;;;52.95;23.07;;;;;;;21.20;100.00;100667.95;1690776;84;21618;-77
2021/08/18 00:36:02;;;;;;;55.23;23.18;;;;;;;21.13;100.00;100669.62;1690556;84;21122;-79
2021/08/18 00:38:28;;;;;;;51.68;22.10;;;;;;;21.06;100.00;100668.73;1690524;84;21177;-77
2021/08/18 00:40:54;;;;;;;51.88;24.25;;;;;;;21.01;100.00;100664.83;1690467;84;20903;-77
2021/08/18 00:43:19;;;;;;;47.08;20.85;;;;;;;20.97;100.00;100664.69;1722793;82;21443;-78
2021/08/18 00:45:45;;;;;;;49.73;23.15;;;;;;;20.95;100.00;100666.15;1743207;81;21611;-78
2021/08/18 00:48:11;;;;;;;56.88;23.20;;;;;;;20.93;100.00;100658.81;1716192;82;21065;-75
2021/08/18 00:50:38;;;;;;;47.90;21.15;;;;;;;20.87;100.00;100656.24;1743200;82;20870;-79
2021/08/18 00:53:04;;;;;;;59.13;23.35;;;;;;;20.85;100.00;100659.90;1743177;82;21089;-77
2021/08/18 00:55:30;;;;;;;51.73;23.73;;;;;;;20.82;100.00;100656.44;1738693;82;20990;-79
2021/08/18 00:57:58;;;;;;;51.37;23.12;;;;;;;20.78;100.00;100659.58;1746098;81;20912;-78
2021/08/18 01:00:25;;;;;;;49.10;21.93;;;;;;;20.72;100.00;100655.41;1747282;81;21551;-76
2021/08/18 01:02:57;;;;;;;50.95;23.47;;;;;;;20.68;100.00;100658.58;1747725;82;21550;-78
2021/08/18 01:05:27;;;;;;;46.85;22.65;;;;;;;20.63;100.00;100664.22;1747903;82;21030;-83
2021/08/18 01:07:55;;;;;;;48.20;21.42;;;;;;;20.57;100.00;100660.84;1748075;81;21019;-77
2021/08/18 01:10:25;;;;;;;45.65;21.17;;;;;;;20.52;100.00;100657.44;1753172;81;21094;-78
2021/08/18 01:12:53;;;;;;;48.63;21.57;;;;;;;20.50;100.00;100656.95;1748118;81;21089;-77
2021/08/18 01:15:22;;;;;;;50.63;22.20;;;;;;;20.47;100.00;100652.95;1748413;81;21019;-78
2021/08/18 01:17:52;;;;;;;54.95;22.52;;;;;;;20.47;100.00;100654.33;1730187;83;21632;-79
2021/08/18 01:20:24;;;;;;;48.30;21.30;;;;;;;20.46;100.00;100652.70;1730229;83;21113;-77
2021/08/18 01:22:50;;;;;;;47.58;21.40;;;;;;;20.43;100.00;100647.30;1670962;85;21116;-78
2021/08/18 01:25:17;;;;;;;53.15;22.10;;;;;;;20.42;100.00;100646.28;1671161;85;21754;-78
2021/08/18 01:27:51;;;;;;;55.85;23.12;;;;;;;20.37;100.00;100643.70;1671137;85;21485;-79
2021/08/18 01:30:19;;;;;;;51.85;22.77;;;;;;;20.33;100.00;100644.13;1641463;87;21165;-78
2021/08/18 01:32:58;;;;;;;54.42;22.93;;;;;;;20.30;100.00;100652.98;1641330;87;21130;-78
2021/08/18 01:35:34;;;;;;;42.65;21.25;;;;;;;20.26;100.00;100650.06;1641385;87;21554;-77
2021/08/18 01:38:03;;;;;;;55.20;23.25;;;;;;;20.24;100.00;100653.71;1586356;89;21260;-78
2021/08/18 01:40:31;;;;;;;53.98;23.40;;;;;;;20.22;100.00;100651.85;1547303;92;21112;-77
2021/08/18 01:42:57;;;;;;;51.30;23.07;;;;;;;20.22;100.00;100649.11;1546836;92;21127;-78
2021/08/18 01:45:28;;;;;;;57.80;24.55;;;;;;;20.20;100.00;100650.79;1547710;92;21249;-77
2021/08/18 01:47:55;;;;;;;54.50;23.90;;;;;;;20.18;100.00;100645.42;1547467;92;21146;-75
2021/08/18 01:50:24;;;;;;;55.12;23.87;;;;;;;20.14;100.00;100648.55;1547627;92;22008;-79
2021/08/18 01:52:51;;;;;;;56.15;23.85;;;;;;;20.12;100.00;100646.16;1547601;92;21209;-78
2021/08/18 01:55:20;;;;;;;49.93;23.50;;;;;;;20.10;100.00;100645.66;1547677;92;21556;-77
2021/08/18 01:57:46;;;;;;;54.85;23.20;;;;;;;20.07;100.00;100652.34;1534669;91;21073;-79
2021/08/18 02:00:15;;;;;;;57.13;23.52;;;;;;;20.04;100.00;100647.52;1560521;92;20991;-76
2021/08/18 02:02:41;;;;;;;55.05;22.80;;;;;;;19.97;100.00;100646.61;1535809;93;21277;-78
2021/08/18 02:05:09;;;;;;;52.10;22.95;;;;;;;19.93;100.00;100649.20;1536189;92;21649;-78
2021/08/18 02:07:36;;;;;;;48.15;22.27;;;;;;;19.91;100.00;100650.64;1512959;94;21181;-78
2021/08/18 02:10:11;;;;;;;61.40;23.25;;;;;;;19.89;100.00;100650.97;1512855;94;21058;-78
2021/08/18 02:12:38;;;;;;;51.30;24.25;;;;;;;19.89;100.00;100649.61;1512897;94;21090;-79
2021/08/18 02:15:07;;;;;;;49.53;22.70;;;;;;;19.90;100.00;100653.94;1507863;94;21170;-80
2021/08/18 02:17:33;;;;;;;55.88;23.98;;;;;;;19.82;100.00;100647.89;1516334;94;21164;-82
2021/08/18 02:19:59;;;;;;;50.43;22.73;;;;;;;19.75;100.00;100643.48;1548518;91;21013;-78
2021/08/18 02:22:25;;;;;;;50.67;23.52;;;;;;;19.68;100.00;100645.90;1567884;90;21095;-78
2021/08/18 02:24:51;;;;;;;53.58;23.18;;;;;;;19.63;100.00;100642.70;1567811;90;21187;-76
2021/08/18 02:27:17;;;;;;;46.10;21.93;;;;;;;19.60;100.00;100646.08;1596522;87;21114;-77
2021/08/18 02:29:43;;;;;;;50.58;22.15;;;;;;;19.57;100.00;100644.55;1641055;87;21806;-82
2021/08/18 02:32:09;;;;;;;55.23;23.18;;;;;;;19.56;100.00;100644.30;1731087;81;20984;-77
2021/08/18 02:34:35;;;;;;;57.35;25.15;;;;;;;19.58;100.00;100639.32;1749658;80;21015;-76
2021/08/18 02:37:01;;;;;;;56.40;24.77;;;;;;;19.60;100.00;100639.25;1761692;81;20999;-78
2021/08/18 02:39:27;;;;;;;54.13;24.00;;;;;;;19.55;100.00;100640.76;1761765;81;21217;-77
2021/08/18 02:41:53;;;;;;;74.62;26.35;;;;;;;19.56;100.00;100638.83;1761590;81;20947;-77
2021/08/18 02:44:19;;;;;;;76.62;24.65;;;;;;;19.56;100.00;100642.92;1757457;81;20962;-78
2021/08/18 02:49:13;;;;;;;57.05;24.90;;;;;;;19.55;100.00;100631.19;1677130;84;21084;-84
2021/08/18 02:51:38;;;;;;;60.92;23.85;;;;;;;19.58;100.00;100632.48;1700778;84;21162;-78
2021/08/18 02:54:04;;;;;;;55.03;22.25;;;;;;;19.61;100.00;100634.58;1700522;84;21194;-75
2021/08/18 02:56:30;;;;;;;64.60;23.10;;;;;;;19.63;100.00;100636.44;1700591;84;20895;-78
2021/08/18 02:58:56;;;;;;;60.30;24.20;;;;;;;19.64;100.00;100634.73;1702864;84;21553;-80
2021/08/18 03:01:22;;;;;;;62.17;21.70;;;;;;;19.63;100.00;100638.61;1703589;84;20883;-79
2021/08/18 03:03:51;;;;;;;54.03;22.95;;;;;;;19.64;100.00;100644.31;1718529;80;21079;-79
2021/08/18 03:06:16;;;;;;;56.73;23.27;;;;;;;19.68;100.00;100644.53;1773249;80;21051;-80
2021/08/18 03:08:42;;;;;;;64.53;22.15;;;;;;;19.73;100.00;100646.52;1773161;80;20884;-82
2021/08/18 03:11:08;;;;;;;58.90;26.33;;;;;;;19.78;100.00;100646.94;1773287;80;20963;-82
2021/08/18 03:13:34;;;;;;;55.20;26.80;;;;;;;19.87;100.00;100652.41;1773459;80;21450;-76
2021/08/18 03:16:00;;;;;;;63.60;25.85;;;;;;;19.91;100.00;100654.20;1773384;80;21128;-79
2021/08/18 03:18:27;;;;;;;60.92;25.97;;;;;;;19.96;100.00;100647.75;1773310;80;20916;-79
2021/08/18 03:20:54;;;;;;;60.08;24.65;;;;;;;20.00;100.00;100649.27;1773152;80;21015;-80
2021/08/18 03:23:20;;;;;;;54.95;24.95;;;;;;;20.04;100.00;100650.25;1773273;80;21078;-83
2021/08/18 03:25:46;;;;;;;54.70;25.82;;;;;;;20.14;100.00;100648.55;1676078;85;20998;-80
2021/08/18 03:28:12;;;;;;;54.48;24.52;;;;;;;20.21;100.00;100655.73;1676080;85;21891;-79
2021/08/18 03:30:39;;;;;;;56.88;25.75;;;;;;;20.31;100.00;100654.58;1676325;85;21087;-78
2021/08/18 03:33:05;;;;;;;51.65;23.60;;;;;;;20.39;100.00;100660.05;1676007;85;21010;-78
2021/08/18 03:35:31;;;;;;;51.68;25.10;;;;;;;20.51;100.00;100657.22;1676281;85;21691;-78
2021/08/18 03:37:59;;;;;;;53.70;24.95;;;;;;;20.61;100.00;100659.62;1676118;85;20939;-79
2021/08/18 03:40:25;;;;;;;53.98;24.72;;;;;;;20.71;100.00;100656.55;1676318;85;21317;-76
2021/08/18 03:42:51;;;;;;;51.40;25.25;;;;;;;20.78;100.00;100654.10;1676273;85;20977;-79
2021/08/18 03:45:17;;;;;;;55.95;23.25;;;;;;;20.89;100.00;100657.30;1681364;84;20966;-79
2021/08/18 03:47:43;;;;;;;51.15;22.87;;;;;;;21.14;100.00;100652.03;1756531;81;21643;-82
2021/08/18 03:50:10;;;;;;;54.13;23.87;;;;;;;21.51;100.00;100651.79;1684810;84;21146;-79
2021/08/18 03:52:41;;;;;;;46.37;23.20;;;;;;;21.91;100.00;100651.33;1689110;84;21974;-79
2021/08/18 03:55:11;;;;;;;49.63;22.73;;;;;;;22.24;100.00;100644.56;1620446;86;21078;-79
2021/08/18 03:57:37;;;;;;;58.70;24.18;;;;;;;22.65;100.00;100651.09;1587975;89;21084;-78
2021/08/18 04:00:08;;;;;;;51.37;22.20;;;;;;;23.03;100.00;100647.27;1629175;87;21572;-84
2021/08/18 04:02:36;;;;;;;43.45;21.70;;;;;;;23.30;100.00;100645.80;1629175;88;21142;-76
2021/08/18 04:05:03;;;;;;;49.83;22.45;;;;;;;23.60;100.00;100647.70;1629044;87;21107;-81
2021/08/18 04:07:29;;;;;;;51.10;23.20;;;;;;;23.98;100.00;100645.12;1629144;87;21043;-79
2021/08/18 04:09:55;;;;;;;52.23;22.65;;;;;;;24.37;100.00;100646.20;1629242;87;21622;-78
2021/08/18 04:12:22;;;;;;;47.75;21.90;;;;;;;24.80;100.00;100650.13;1629201;87;20969;-77
2021/08/18 04:14:48;;;;;;;47.33;22.62;;;;;;;25.18;100.00;100646.53;1672716;83;21019;-79
2021/08/18 04:17:14;;;;;;;48.10;22.60;;;;;;;25.64;100.00;100650.36;1715286;83;21125;-78
2021/08/18 04:19:40;;;;;;;48.23;23.62;;;;;;;26.11;100.00;100650.78;1714684;83;20840;-79
2021/08/18 04:22:07;;;;;;;55.92;24.45;;;;;;;26.49;100.00;100640.86;1713412;83;21474;-77
2021/08/18 04:24:35;;;;;;;49.35;23.38;;;;;;;26.83;100.00;100647.42;1713762;83;21108;-80
2021/08/18 04:27:04;;;;;;;54.03;25.17;;;;;;;27.12;100.00;100647.31;1713590;83;21048;-78
2021/08/18 04:29:30;;;;;;;52.55;24.75;;;;;;;27.39;100.00;100644.58;1713462;83;21027;-79
2021/08/18 04:31:57;;;;;;;49.23;24.57;;;;;;;27.82;100.00;100641.82;1713785;83;20939;-78
2021/08/18 04:34:23;;;;;;;53.95;24.25;;;;;;;28.25;100.00;100640.16;1713552;83;21035;-84
2021/08/18 04:36:49;;;;;;;62.40;25.57;;;;;;;28.79;100.00;100648.44;1713914;83;21050;-78
2021/08/18 04:39:15;;;;;;;54.50;25.15;;;;;;;29.33;100.00;100646.92;1714014;83;20915;-75
2021/08/18 04:41:41;;;;;;;64.70;26.40;;;;;;;29.95;100.00;100649.47;1714037;83;21172;-78
2021/08/18 04:44:07;;;;;;;60.55;24.95;;;;;;;30.18;100.00;100650.52;1713939;83;21578;-79
2021/08/18 04:46:33;;;;;;;65.80;26.05;;;;;;;30.48;100.00;100643.29;1713926;83;20986;-79
2021/08/18 04:48:59;;;;;;;75.47;25.65;;;;;;;30.55;100.00;100642.69;1713908;83;20888;-78
2021/08/18 04:51:26;;;;;;;71.30;26.42;;;;;;;30.19;99.17;100646.56;1712475;83;21804;-75
2021/08/18 04:53:52;;;;;;;72.12;28.15;;;;;;;29.71;100.00;100637.03;1728941;80;21183;-79
2021/08/18 04:56:18;;;;;;;80.60;28.02;;;;;;;29.45;100.00;100638.07;1793731;79;20923;-79
2021/08/18 04:58:44;;;;;;;78.87;28.25;;;;;;;29.13;100.00;100636.66;1797142;79;21327;-76
2021/08/18 05:01:10;;;;;;;88.85;30.15;;;;;;;28.94;100.00;100634.92;1799736;79;21552;-78
2021/08/18 05:03:36;;;;;;;101.75;33.67;;;;;;;28.73;100.00;100635.51;1799543;79;20927;-79
2021/08/18 05:06:02;;;;;;;98.58;33.42;;;;;;;28.52;100.00;100636.11;1799790;79;21149;-79
2021/08/18 05:08:28;;;;;;;93.35;32.35;;;;;;;28.26;100.00;100632.05;1799589;79;20912;-77
2021/08/18 05:10:53;;;;;;;76.60;29.82;;;;;;;28.11;100.00;100626.94;1799728;79;20947;-77
2021/08/18 05:13:19;;;;;;;69.87;31.25;;;;;;;27.82;100.00;100636.87;1799574;79;20820;-77
2021/08/18 05:15:45;;;;;;;76.25;31.25;;;;;;;27.75;100.00;100634.00;1799687;79;20872;-79
2021/08/18 05:18:11;;;;;;;137.57;54.08;;;;;;;27.73;100.00;100633.56;1799583;79;21139;-77
2021/08/18 05:20:37;;;;;;;194.00;77.42;;;;;;;27.84;100.00;100634.53;1799834;79;20990;-79
2021/08/18 05:23:06;;;;;;;239.88;92.02;;;;;;;28.26;100.00;100627.89;1783868;79;20872;-84
2021/08/18 05:25:32;;;;;;;245.25;92.65;;;;;;;29.03;100.00;100631.02;1799624;79;21074;-79
2021/08/18 05:28:03;;;;;;;111.62;45.98;;;;;;;29.91;100.00;100627.20;1799681;79;21058;-78
2021/08/18 05:30:26;;;;;;;100.70;42.45;;;;;;;30.97;100.00;100627.82;1796820;79;20932;-74
2021/08/18 05:32:52;;;;;;;65.08;31.85;;;;;;;31.47;97.26;100620.80;1799695;79;20872;-82
2021/08/18 05:35:18;;;;;;;63.40;30.90;;;;;;;31.63;91.51;100623.16;1799733;79;20879;-81
2021/08/18 05:37:45;;;;;;;61.85;31.02;;;;;;;31.93;90.24;100619.08;1799660;79;20963;-77
2021/08/18 05:40:11;;;;;;;69.97;31.35;;;;;;;32.26;85.40;100614.91;1784062;79;21042;-80
2021/08/18 05:42:37;;;;;;;56.20;29.27;;;;;;;32.19;83.03;100618.54;1799711;79;21985;-80
2021/08/18 05:45:05;;;;;;;70.10;32.03;;;;;;;32.21;82.05;100615.33;1799507;79;20860;-83
2021/08/18 05:47:31;;;;;;;69.97;31.87;;;;;;;32.48;79.68;100619.18;1799639;79;21226;-81
2021/08/18 05:49:57;;;;;;;71.37;31.68;;;;;;;33.01;76.68;100617.97;1799870;79;21034;-80
2021/08/18 05:52:26;;;;;;;63.10;31.27;;;;;;;33.42;73.12;100611.56;1799631;79;20884;-86
2021/08/18 05:54:52;;;;;;;57.75;29.42;;;;;;;34.12;68.75;100614.52;1799799;79;21133;-81
2021/08/18 05:57:17;;;;;;;62.65;31.70;;;;;;;34.89;66.55;100610.95;1799535;79;20990;-81
2021/08/18 05:59:43;;;;;;;56.73;27.95;;;;;;;35.55;60.56;100614.96;1794064;79;20951;-80
2021/08/18 06:02:09;;;;;;;51.58;27.13;;;;;;;36.31;57.24;100612.12;1774152;80;21616;-81
2021/08/18 06:04:35;;;;;;;52.83;27.70;;;;;;;36.18;52.73;100611.84;1793705;80;20892;-78
2021/08/18 06:07:01;;;;;;;56.05;26.50;;;;;;;36.29;54.72;100606.77;1793728;79;21944;-84
2021/08/18 06:09:27;;;;;;;51.85;23.73;;;;;;;37.26;54.34;100600.93;1793814;79;20943;-80
2021/08/18 06:14:20;;;;;;;35.35;19.67;;;;;;;38.96;48.41;100603.15;1773466;80;21078;-83
2021/08/18 06:16:46;;;;;;;41.98;18.98;;;;;;;39.74;43.98;100595.31;1773951;80;20900;-82
2021/08/18 06:19:12;;;;;;;30.32;17.82;;;;;;;40.23;42.36;100600.09;1779347;79;21899;-82
2021/08/18 06:21:38;;;;;;;31.48;18.32;;;;;;;40.41;41.42;100595.27;1805752;79;20978;-82
2021/08/18 06:26:35;;;;;;;;;;;;;;;39.99;40.32;100588.52;1784883;80;21581;-80
2021/08/18 06:29:01;;;;;;;30.60;18.90;;;;;;;40.43;38.66;100585.55;1782601;80;20259;-81
2021/08/18 06:31:27;;;;;;;28.45;16.30;;;;;;;40.71;39.34;100582.16;1782560;80;21565;-81
2021/08/18 06:33:53;;;;;;;26.60;16.52;;;;;;;40.74;37.46;100576.37;1756475;80;21051;-84
2021/08/18 06:38:47;;;;;;;24.18;14.00;;;;;;;40.23;38.20;100569.80;1759746;81;20947;-82
2021/08/18 06:41:13;;;;;;;28.62;15.18;;;;;;;40.34;37.06;100575.02;1760077;81;21730;-85
2021/08/18 06:43:41;;;;;;;24.63;15.00;;;;;;;40.11;36.64;100566.45;1760249;81;20961;-82
2021/08/18 06:46:06;;;;;;;25.88;15.05;;;;;;;39.60;37.85;100575.30;1759727;81;20999;-86
2021/08/18 06:48:32;;;;;;;23.00;14.80;;;;;;;39.59;38.34;100570.25;1759828;81;21011;-82
2021/08/18 06:50:58;;;;;;;24.50;13.83;;;;;;;40.36;37.08;100565.46;1741215;81;20857;-81
2021/08/18 06:53:24;;;;;;;19.95;13.58;;;;;;;40.76;36.59;100560.34;1729997;83;20891;-79
2021/08/18 06:55:50;;;;;;;22.95;12.90;;;;;;;40.69;35.21;100559.25;1705400;83;21100;-82
2021/08/18 06:58:18;;;;;;;22.45;13.88;;;;;;;40.74;36.10;100554.37;1726203;83;21041;-80
2021/08/18 07:00:44;;;;;;;23.22;13.80;;;;;;;41.08;34.88;100558.95;1688088;83;21027;-78
2021/08/18 07:03:10;;;;;;;24.87;14.00;;;;;;;41.11;34.61;100552.98;1687898;83;20884;-81
2021/08/18 07:05:36;;;;;;;20.55;13.32;;;;;;;41.44;34.57;100553.85;1711742;83;21081;-82
2021/08/18 07:08:02;;;;;;;25.57;13.53;;;;;;;42.30;34.11;100541.89;1711379;83;22009;-82
2021/08/18 07:10:28;;;;;;;26.07;15.40;;;;;;;42.96;32.94;100535.30;1710653;83;21084;-80
2021/08/18 07:12:54;;;;;;;23.87;15.88;;;;;;;43.29;31.72;100534.50;1711748;83;20920;-82
2021/08/18 07:15:21;;;;;;;25.32;16.02;;;;;;;43.11;31.77;100534.67;1711944;83;20900;-82
2021/08/18 07:17:47;;;;;;;24.25;15.50;;;;;;;43.07;30.76;100534.88;1698500;83;21649;-81
2021/08/18 07:20:14;;;;;;;30.08;16.55;;;;;;;42.87;31.96;100529.86;1686786;85;21148;-81
2021/08/18 07:22:40;;;;;;;28.50;17.48;;;;;;;43.15;30.63;100535.92;1691499;84;21554;-82
2021/08/18 07:25:06;;;;;;;25.97;16.93;;;;;;;42.34;30.23;100526.31;1705862;84;21082;-80
2021/08/18 07:27:32;;;;;;;30.50;17.37;;;;;;;42.56;30.68;100527.41;1705973;84;21558;-82
2021/08/18 07:29:58;;;;;;;26.68;16.62;;;;;;;42.47;30.47;100528.11;1682190;84;20896;-80
2021/08/18 07:32:24;;;;;;;26.68;16.45;;;;;;;42.77;30.21;100524.75;1705917;84;21692;-83
2021/08/18 07:34:50;;;;;;;29.75;18.52;;;;;;;43.15;30.04;100523.94;1691159;81;20880;-82
2021/08/18 07:37:17;;;;;;;30.97;17.60;;;;;;;43.04;29.83;100520.89;1763705;81;20994;-81
2021/08/18 07:39:44;;;;;;;28.80;17.50;;;;;;;42.41;29.89;100518.86;1763333;81;21079;-84
2021/08/18 07:42:11;;;;;;;32.50;18.15;;;;;;;42.98;29.65;100519.37;1763690;81;21537;-84
2021/08/18 07:44:38;;;;;;;31.12;16.73;;;;;;;43.63;28.73;100513.04;1763237;81;21073;-80
2021/08/18 07:47:04;;;;;;;26.57;16.70;;;;;;;43.68;28.37;100515.97;1763626;81;20987;-81
2021/08/18 07:49:32;;;;;;;34.78;18.05;;;;;;;43.56;28.32;100518.46;1763775;81;21022;-82
2021/08/18 07:51:58;;;;;;;31.42;16.93;;;;;;;43.79;27.97;100510.30;1764020;81;21018;-81
2021/08/18 07:54:24;;;;;;;30.55;18.77;;;;;;;44.46;27.60;100509.84;1735460;81;21048;-84
2021/08/18 07:56:50;;;;;;;28.20;18.05;;;;;;;44.07;26.68;100505.05;1763585;81;21068;-82
2021/08/18 08:01:43;;;;;;;35.40;18.77;;;;;;;43.45;26.62;100506.28;1702871;83;21013;-82
2021/08/18 08:04:09;;;;;;;28.25;18.10;;;;;;;43.25;27.56;100499.88;1702958;83;20867;-90
2021/08/18 08:06:35;;;;;;;29.50;18.25;;;;;;;43.29;27.31;100501.09;1703090;82;20930;-81
2021/08/18 08:09:01;;;;;;;30.72;18.60;;;;;;;43.71;27.37;100501.39;1679154;83;21186;-83
2021/08/18 08:11:27;;;;;;;32.83;17.25;;;;;;;43.42;25.83;100495.11;1677512;84;20992;-82
2021/08/18 08:13:53;;;;;;;34.67;18.90;;;;;;;43.25;26.15;100491.37;1677565;83;21431;-83
2021/08/18 08:16:18;;;;;;;37.28;18.77;;;;;;;43.52;25.99;100486.64;1653486;85;20977;-81
2021/08/18 08:18:44;;;;;;;30.23;17.80;;;;;;;42.95;25.83;100491.17;1677355;85;20899;-82
2021/08/18 08:21:11;;;;;;;30.32;19.20;;;;;;;42.41;26.09;100484.84;1677670;83;21906;-81
2021/08/18 08:23:36;;;;;;;30.35;17.67;;;;;;;42.60;26.40;100488.97;1677419;85;21136;-82
2021/08/18 08:26:03;;;;;;;33.70;17.75;;;;;;;43.46;25.65;100478.67;1640288;87;21013;-81
2021/08/18 08:28:29;;;;;;;31.00;17.65;;;;;;;43.54;25.18;100484.13;1640135;87;20981;-82
2021/08/18 08:30:55;;;;;;;30.00;17.85;;;;;;;43.09;24.52;100475.61;1640325;87;21036;-80
2021/08/18 08:33:20;;;;;;;30.77;18.12;;;;;;;43.20;25.63;100476.45;1640126;87;21007;-83
2021/08/18 08:35:46;;;;;;;43.63;17.62;;;;;;;43.95;24.92;100461.52;1650328;86;21054;-84
2021/08/18 08:38:13;;;;;;;40.80;18.80;;;;;;;44.33;23.96;100464.73;1666673;86;21055;-79
2021/08/18 08:40:42;;;;;;;34.48;18.82;;;;;;;43.81;24.67;100464.52;1666540;85;21131;-81
2021/08/18 08:43:08;;;;;;;35.73;17.85;;;;;;;43.65;24.63;100455.11;1666494;86;21062;-83
2021/08/18 08:45:34;;;;;;;28.17;17.12;;;;;;;43.64;24.64;100452.91;1666844;86;21259;-87
2021/08/18 08:48:00;;;;;;;29.92;16.67;;;;;;;44.24;24.52;100456.95;1666856;84;21069;-84
2021/08/18 08:50:27;;;;;;;27.05;15.45;;;;;;;44.11;23.27;100453.83;1681442;84;21537;-83
2021/08/18 08:52:53;;;;;;;28.87;15.93;;;;;;;43.92;23.21;100451.12;1703266;84;21082;-84
2021/08/18 08:55:19;;;;;;;33.30;15.32;;;;;;;44.10;22.78;100450.86;1703311;84;21016;-83
2021/08/18 09:00:22;;;;;;;27.05;15.63;;;;;;;43.15;21.98;100456.49;1734967;81;21049;-82
2021/08/18 09:03:09;;;;;;;26.30;14.15;;;;;;;42.46;22.50;100450.82;1729184;83;20990;-83
2021/08/18 09:05:36;;;;;;;32.25;15.18;;;;;;;42.65;23.31;100444.34;1728864;83;21074;-85
2021/08/18 09:08:03;;;;;;;29.48;15.23;;;;;;;43.32;22.40;100444.14;1728674;83;21574;-83
2021/08/18 09:10:29;;;;;;;30.35;16.50;;;;;;;43.38;22.73;100437.13;1729053;80;21080;-83
2021/08/18 09:13:17;;;;;;;35.52;16.55;;;;;;;43.39;21.94;100434.45;1728937;80;20986;-82
2021/08/18 09:15:48;;;;;;;28.73;16.97;;;;;;;43.53;21.65;100427.97;1728946;80;21736;-87
2021/08/18 09:18:14;;;;;;;30.83;17.43;;;;;;;43.85;21.84;100425.31;1722480;83;21074;-88
2021/08/18 09:20:42;;;;;;;34.83;18.75;;;;;;;43.54;21.71;100423.09;1729505;83;20899;-83
2021/08/18 09:23:12;;;;;;;35.58;17.48;;;;;;;43.15;22.33;100427.48;1729380;83;21084;-83
2021/08/18 09:25:42;;;;;;;33.90;16.57;;;;;;;43.03;22.09;100421.45;1704926;83;21085;-83
2021/08/18 09:28:13;;;;;;;34.03;18.00;;;;;;;42.93;21.98;100425.68;1705700;83;21061;-84
2021/08/18 09:30:46;;;;;;;42.13;19.48;;;;;;;42.93;22.55;100420.00;1729517;83;21530;-83
2021/08/18 09:33:19;;;;;;;39.63;18.23;;;;;;;43.09;22.68;100418.07;1722523;83;21157;-84
2021/08/18 09:35:55;;;;;;;38.02;17.57;;;;;;;42.76;23.62;100420.48;1722697;83;21074;-82
2021/08/18 09:38:23;;;;;;;35.68;16.67;;;;;;;42.64;22.80;100418.05;1720271;83;21113;-87
2021/08/18 09:40:54;;;;;;;36.83;18.10;;;;;;;42.15;22.51;100410.11;1687772;85;21098;-83
2021/08/18 09:43:26;;;;;;;35.45;17.50;;;;;;;41.47;23.02;100406.43;1723045;82;21046;-84
2021/08/18 09:46:05;;;;;;;32.38;16.32;;;;;;;41.74;23.35;100406.91;1722632;83;21018;-84
2021/08/18 09:48:34;;;;;;;32.33;16.67;;;;;;;41.65;23.07;100400.70;1722783;83;21982;-83
2021/08/18 09:51:12;;;;;;;30.40;16.80;;;;;;;41.79;23.36;100403.42;1656718;86;21068;-83
2021/08/18 09:56:15;;;;;;;42.05;15.00;;;;;;;40.83;23.64;100394.69;1603444;88;21054;-83
2021/08/18 09:58:55;;;;;;;42.15;16.48;;;;;;;40.31;23.53;100395.97;1585920;89;21046;-83
2021/08/18 10:01:20;;;;;;;32.03;15.08;;;;;;;39.70;23.77;100391.45;1560035;92;21148;-85
2021/08/18 10:03:49;;;;;;;33.02;14.90;;;;;;;39.70;23.79;100388.63;1581919;90;21179;-82
2021/08/18 10:06:17;;;;;;;34.73;15.43;;;;;;;39.93;23.77;100385.87;1560566;90;21043;-80
2021/08/18 10:08:46;;;;;;;32.73;15.23;;;;;;;39.59;22.81;100391.09;1582002;90;21621;-83
2021/08/18 10:11:16;;;;;;;32.65;15.50;;;;;;;39.22;23.20;100393.77;1560452;92;21119;-83
2021/08/18 10:13:44;;;;;;;32.50;14.05;;;;;;;38.96;23.82;100384.72;1582047;90;21754;-86
2021/08/18 10:16:13;;;;;;;34.25;14.55;;;;;;;39.33;23.44;100381.30;1560366;92;21209;-87
2021/08/18 10:18:49;;;;;;;33.65;13.58;;;;;;;39.82;23.12;100377.08;1581850;90;21138;-83
2021/08/18 10:21:23;;;;;;;34.65;14.15;;;;;;;39.95;22.20;100379.14;1501567;95;21166;-83
2021/08/18 10:23:59;;;;;;;33.80;14.05;;;;;;;39.70;22.66;100377.34;1490444;94;21134;-82
2021/08/18 10:26:40;;;;;;;31.60;14.25;;;;;;;39.99;23.06;100377.58;1513859;94;21087;-74
2021/08/18 10:29:09;;;;;;;35.55;13.88;;;;;;;40.13;22.18;100376.95;1518307;92;21059;-77
2021/08/18 10:31:47;;;;;;;32.78;12.58;;;;;;;40.08;21.94;100375.38;1555668;92;21082;-74
2021/08/18 10:34:41;;;;;;;39.48;12.98;;;;;;;39.63;21.33;100372.00;1513056;94;21640;-81
2021/08/18 10:37:23;;;;;;;33.13;12.98;;;;;;;39.50;21.91;100367.09;1512470;94;21204;-77
2021/08/18 10:39:55;;;;;;;30.60;12.98;;;;;;;39.22;21.62;100370.44;1466647;96;21937;-76
2021/08/18 10:42:43;;;;;;;27.58;13.18;;;;;;;39.37;21.87;100366.45;1467164;96;21680;-76
2021/08/18 10:45:27;;;;;;;33.55;13.55;;;;;;;39.46;21.73;100363.65;1466460;96;21169;-78
2021/08/18 10:47:55;;;;;;;29.80;13.10;;;;;;;38.98;21.35;100368.77;1466797;96;21061;-78
2021/08/18 10:50:26;;;;;;;34.55;12.23;;;;;;;39.08;22.07;100361.91;1449392;96;21136;-78
2021/08/18 10:52:56;;;;;;;29.03;11.67;;;;;;;39.00;21.09;100359.20;1467247;96;21130;-77
2021/08/18 10:55:30;;;;;;;35.03;12.20;;;;;;;38.92;21.95;100346.66;1471665;96;21448;-79
2021/08/18 10:58:03;;;;;;;40.55;12.73;;;;;;;38.92;22.29;100343.21;1477277;95;21213;-74
2021/08/18 11:00:39;;;;;;;40.80;12.58;;;;;;;39.15;21.84;100348.15;1530874;91;21120;-77
2021/08/18 11:03:16;;;;;;;32.93;12.47;;;;;;;38.87;21.73;100343.80;1564821;91;21071;-78
2021/08/18 11:05:54;;;;;;;38.98;12.85;;;;;;;38.28;22.19;100344.16;1564675;90;21062;-78
2021/08/18 11:08:30;;;;;;;33.28;12.45;;;;;;;37.74;22.26;100348.83;1540265;92;21143;-77
2021/08/18 11:11:01;;;;;;;30.88;11.57;;;;;;;37.58;22.68;100340.52;1537481;92;21674;-78
2021/08/18 11:13:49;;;;;;;32.67;13.37;;;;;;;37.66;22.72;100339.83;1556938;92;21085;-76
2021/08/18 11:16:19;;;;;;;34.38;12.73;;;;;;;38.23;22.99;100332.06;1556506;92;21557;-80
2021/08/18 11:18:53;;;;;;;32.60;13.38;;;;;;;38.64;22.64;100333.78;1557668;92;21043;-79
2021/08/18 11:21:24;;;;;;;35.30;12.63;;;;;;;38.94;22.48;100331.46;1522328;93;21122;-80
2021/08/18 11:23:53;;;;;;;30.00;12.68;;;;;;;39.20;22.01;100329.22;1497989;94;21726;-77
2021/08/18 11:26:23;;;;;;;31.35;13.35;;;;;;;39.40;22.13;100322.58;1498009;95;21143;-77